Time;durP1;ratioP1;P1;durP2;ratioP2;P2;SDS_P1;SDS_P2;PMS_P1;PMS_P2;Temp;Humidity;BMP_temperature;BMP_pressure;BME280_temperature;BME280_humidity;BME280_pressure;Samples;Min_cycle;Max_cycle;Signal;HPM_P1;HPM_P2
2023/08/10 00:00:37;;;;;;;6.82;2.60;;;14.40;99.90;;;;;;5054912;28;20048;-43
2023/08/10 00:03:03;;;;;;;6.15;2.97;;;14.40;99.90;;;;;;5036019;28;20049;-41
2023/08/10 00:05:29;;;;;;;9.02;3.08;;;14.40;99.90;;;;;;5049971;28;20339;-41
2023/08/10 00:07:55;;;;;;;7.07;2.83;;;14.40;99.90;;;;;;5037765;28;20062;-46
2023/08/10 00:10:21;;;;;;;8.15;2.90;;;14.40;99.90;;;;;;5036459;28;20052;-42
2023/08/10 00:12:46;;;;;;;7.65;3.10;;;14.40;99.90;;;;;;5043272;28;20083;-38
2023/08/10 00:15:12;;;;;;;7.72;3.47;;;14.30;99.90;;;;;;5037051;28;20091;-41
2023/08/10 00:17:38;;;;;;;8.70;3.15;;;14.30;99.90;;;;;;5042120;28;20131;-40
2023/08/10 00:20:07;;;;;;;8.60;3.38;;;14.30;99.90;;;;;;5055325;28;20431;-39
2023/08/10 00:22:33;;;;;;;6.47;3.15;;;14.20;99.90;;;;;;5058031;28;20048;-42
2023/08/10 00:24:58;;;;;;;8.35;3.08;;;14.20;99.90;;;;;;5041072;28;20053;-39
2023/08/10 00:27:25;;;;;;;5.32;2.92;;;14.20;99.90;;;;;;5036097;28;20041;-40
2023/08/10 00:29:51;;;;;;;10.15;3.38;;;14.20;99.90;;;;;;5035892;28;20063;-42
2023/08/10 00:32:19;;;;;;;6.03;3.35;;;14.10;99.90;;;;;;5048079;28;20052;-41
2023/08/10 00:34:44;;;;;;;8.10;3.03;;;14.10;99.90;;;;;;5024205;28;20211;-43
2023/08/10 00:37:10;;;;;;;3.38;2.85;;;14.10;99.90;;;;;;5042339;28;20054;-41
2023/08/10 00:39:36;;;;;;;6.28;3.58;;;14.10;99.90;;;;;;5055076;28;20491;-40
2023/08/10 00:42:02;;;;;;;8.23;3.40;;;14.10;99.90;;;;;;5042237;28;20090;-41
2023/08/10 00:44:28;;;;;;;5.88;2.80;;;14.10;99.90;;;;;;5041306;28;20044;-41
2023/08/10 00:46:54;;;;;;;7.25;3.85;;;14.10;99.90;;;;;;5043179;28;20056;-43
2023/08/10 00:49:20;;;;;;;7.10;3.13;;;14.10;99.90;;;;;;5037193;28;20048;-39
2023/08/10 00:51:46;;;;;;;6.22;3.17;;;14.10;99.90;;;;;;5053787;28;20095;-40
2023/08/10 00:54:12;;;;;;;8.40;3.72;;;14.10;99.90;;;;;;5053732;28;20434;-41
2023/08/10 00:56:38;;;;;;;11.27;3.33;;;14.10;99.90;;;;;;5042249;28;20076;-39
2023/08/10 00:59:04;;;;;;;4.47;2.95;;;14.10;99.90;;;;;;5053764;28;20094;-38
2023/08/10 01:01:29;;;;;;;4.80;2.90;;;14.10;99.90;;;;;;5042073;28;20056;-42
2023/08/10 01:03:55;;;;;;;5.47;3.50;;;14.10;99.90;;;;;;5041962;28;20048;-39
2023/08/10 01:06:30;;;;;;;7.60;3.10;;;14.10;99.90;;;;;;5042237;28;20470;-42
2023/08/10 01:08:58;;;;;;;9.93;4.72;;;14.10;99.90;;;;;;5055296;28;20113;-41
2023/08/10 01:11:29;;;;;;;9.45;3.40;;;14.10;99.90;;;;;;5054508;28;20048;-41
2023/08/10 01:14:16;;;;;;;4.70;2.90;;;14.10;99.90;;;;;;5052988;28;20049;-41
2023/08/10 01:16:43;;;;;;;6.40;2.95;;;14.00;99.90;;;;;;5046367;28;20054;-41
2023/08/10 01:19:39;;;;;;;6.55;3.22;;;13.90;99.90;;;;;;5035810;28;20060;-40
2023/08/10 01:22:37;;;;;;;6.53;3.45;;;13.80;99.90;;;;;;4971223;28;20070;-38
2023/08/10 01:25:06;;;;;;;5.47;3.42;;;13.80;99.90;;;;;;4971291;28;20509;-37
2023/08/10 01:27:33;;;;;;;16.90;3.55;;;13.70;99.90;;;;;;4960213;28;20073;-46
2023/08/10 01:30:00;;;;;;;5.63;3.65;;;13.60;99.90;;;;;;4970899;28;20053;-43
2023/08/10 01:32:30;;;;;;;7.75;3.58;;;13.60;99.90;;;;;;4960643;28;20058;-43
2023/08/10 01:35:05;;;;;;;5.72;3.13;;;13.50;99.90;;;;;;4969987;28;20054;-42
2023/08/10 01:37:31;;;;;;;7.25;3.33;;;13.40;99.90;;;;;;4963571;28;20602;-42
2023/08/10 01:39:57;;;;;;;3.13;2.65;;;13.40;99.90;;;;;;4959547;28;20395;-41
2023/08/10 01:42:24;;;;;;;7.40;3.15;;;13.30;99.90;;;;;;4972086;28;20054;-37
2023/08/10 01:44:50;;;;;;;6.70;2.83;;;13.30;99.90;;;;;;4959284;28;20181;-38
2023/08/10 01:47:38;;;;;;;4.43;2.75;;;13.20;99.90;;;;;;4973383;28;20145;-41
2023/08/10 01:50:08;;;;;;;4.70;3.50;;;13.10;99.90;;;;;;4972975;28;20142;-39
2023/08/10 01:52:39;;;;;;;7.85;3.42;;;13.00;99.90;;;;;;4971254;28;20065;-40
2023/08/10 01:55:07;;;;;;;8.90;3.30;;;13.00;99.90;;;;;;4952729;28;20175;-38
2023/08/10 01:57:33;;;;;;;4.60;3.00;;;12.90;99.90;;;;;;4974173;28;20120;-39
2023/08/10 01:59:59;;;;;;;7.18;3.55;;;12.90;99.90;;;;;;5025009;28;20072;-44
2023/08/10 02:02:25;;;;;;;6.95;2.97;;;12.90;99.90;;;;;;5036373;28;20045;-41
2023/08/10 02:04:51;;;;;;;5.63;2.95;;;12.90;99.90;;;;;;5043146;28;20441;-41
2023/08/10 02:07:17;;;;;;;3.60;2.50;;;12.90;99.90;;;;;;5048192;28;20265;-41
2023/08/10 02:09:42;;;;;;;4.38;2.90;;;12.80;99.90;;;;;;5053933;28;20051;-44
2023/08/10 02:12:08;;;;;;;5.32;2.55;;;12.70;99.90;;;;;;5039928;28;20784;-39
2023/08/10 02:14:34;;;;;;;5.80;3.08;;;12.70;99.90;;;;;;5029127;28;20040;-39
2023/08/10 02:16:59;;;;;;;4.07;2.40;;;12.60;99.90;;;;;;5047652;28;20614;-43
2023/08/10 02:19:25;;;;;;;6.13;2.50;;;12.60;99.90;;;;;;5053811;28;20045;-39
2023/08/10 02:21:51;;;;;;;4.30;2.92;;;12.60;99.90;;;;;;5052716;28;20044;-43
2023/08/10 02:24:16;;;;;;;4.97;3.13;;;12.50;99.90;;;;;;5035205;28;20127;-41
2023/08/10 02:26:42;;;;;;;4.72;2.80;;;12.50;99.90;;;;;;5053429;28;20400;-43
2023/08/10 02:29:08;;;;;;;8.98;3.88;;;12.50;99.90;;;;;;5053640;28;20094;-40
2023/08/10 02:31:34;;;;;;;8.50;2.97;;;12.50;99.90;;;;;;5051939;28;20044;-39
2023/08/10 02:33:59;;;;;;;5.47;2.70;;;12.50;99.90;;;;;;5041135;28;20051;-42
2023/08/10 02:36:25;;;;;;;5.22;2.45;;;12.50;99.90;;;;;;5040486;28;20044;-43
2023/08/10 02:38:50;;;;;;;6.82;2.72;;;12.50;99.90;;;;;;5053955;28;20051;-38
2023/08/10 02:41:16;;;;;;;6.93;3.15;;;12.60;99.90;;;;;;5053257;28;20169;-40
2023/08/10 02:43:42;;;;;;;6.07;3.38;;;12.60;99.90;;;;;;5053738;28;20180;-42
2023/08/10 02:46:08;;;;;;;4.82;3.05;;;12.60;99.90;;;;;;5053585;28;20044;-42
2023/08/10 02:48:34;;;;;;;4.18;2.88;;;12.60;99.90;;;;;;5053796;28;20415;-39
2023/08/10 02:50:59;;;;;;;5.55;3.15;;;12.60;99.90;;;;;;5052897;28;20044;-41
2023/08/10 02:53:25;;;;;;;6.07;3.92;;;12.60;99.90;;;;;;5054230;28;20460;-40
2023/08/10 02:55:51;;;;;;;7.15;4.22;;;12.70;99.90;;;;;;5055348;28;20044;-40
2023/08/10 02:58:16;;;;;;;6.75;3.60;;;12.70;99.90;;;;;;5057414;28;20052;-38
2023/08/10 03:00:42;;;;;;;7.53;4.05;;;12.70;99.90;;;;;;5056034;28;20121;-41
2023/08/10 03:03:08;;;;;;;6.78;4.32;;;12.70;99.90;;;;;;5022622;28;20494;-42
2023/08/10 03:05:34;;;;;;;5.75;4.07;;;12.80;99.90;;;;;;5055404;28;20579;-42
2023/08/10 03:08:00;;;;;;;10.57;4.03;;;12.90;99.90;;;;;;5044529;28;20127;-38
2023/08/10 03:10:26;;;;;;;9.13;3.92;;;13.00;99.90;;;;;;5043150;28;20045;-41
2023/08/10 03:12:51;;;;;;;5.88;4.22;;;13.00;99.90;;;;;;5055857;28;20052;-40
2023/08/10 03:15:17;;;;;;;9.07;4.15;;;13.10;99.90;;;;;;5043048;28;20055;-44
2023/08/10 03:17:44;;;;;;;9.75;3.90;;;13.00;99.90;;;;;;5057144;28;20135;-43
2023/08/10 03:20:14;;;;;;;7.90;4.00;;;13.00;99.90;;;;;;5056353;28;20052;-41
2023/08/10 03:22:40;;;;;;;7.35;3.60;;;13.00;99.90;;;;;;5046866;28;20102;-44
2023/08/10 03:25:06;;;;;;;6.07;3.47;;;13.10;99.90;;;;;;5036340;28;20052;-39
2023/08/10 03:27:31;;;;;;;10.50;4.35;;;13.20;99.90;;;;;;5036219;28;20049;-41
2023/08/10 03:29:57;;;;;;;8.25;3.75;;;13.20;99.90;;;;;;5032597;28;20502;-40
2023/08/10 03:32:23;;;;;;;7.50;3.30;;;13.20;99.90;;;;;;5056031;28;20048;-38
2023/08/10 03:34:48;;;;;;;5.97;3.90;;;13.20;99.90;;;;;;5037277;28;20095;-42
2023/08/10 03:37:14;;;;;;;8.23;3.97;;;13.30;99.90;;;;;;5056693;28;20095;-43
2023/08/10 03:39:39;;;;;;;13.23;5.75;;;13.30;99.90;;;;;;5037125;28;20062;-39
2023/08/10 03:42:05;;;;;;;7.57;3.70;;;13.30;99.90;;;;;;5025885;28;20052;-42
2023/08/10 03:44:31;;;;;;;10.23;4.95;;;13.40;99.90;;;;;;5055282;28;20040;-39
2023/08/10 03:46:57;;;;;;;7.93;4.18;;;13.40;99.90;;;;;;5055980;28;20067;-43
2023/08/10 03:49:23;;;;;;;5.53;3.88;;;13.40;99.90;;;;;;5036057;28;20065;-39
2023/08/10 03:51:50;;;;;;;8.90;4.05;;;13.50;99.90;;;;;;5025537;28;20055;-43
2023/08/10 03:54:16;;;;;;;6.93;3.90;;;13.50;99.90;;;;;;5024545;28;20088;-41
2023/08/10 03:56:43;;;;;;;5.57;3.72;;;13.50;99.90;;;;;;5056217;28;20392;-40
2023/08/10 03:59:08;;;;;;;7.78;3.72;;;13.50;99.90;;;;;;5056166;28;20323;-38
2023/08/10 04:01:34;;;;;;;9.15;3.58;;;13.40;99.90;;;;;;5052937;28;20048;-40
2023/08/10 04:04:00;;;;;;;5.88;3.95;;;13.40;99.90;;;;;;5052937;28;20048;-39
2023/08/10 04:06:26;;;;;;;4.55;3.20;;;13.40;99.90;;;;;;5041499;28;20048;-43
2023/08/10 04:08:53;;;;;;;6.55;3.83;;;13.40;99.90;;;;;;5053840;28;20057;-41
2023/08/10 04:11:19;;;;;;;8.82;3.80;;;13.30;99.90;;;;;;5044691;28;20368;-41
2023/08/10 04:13:46;;;;;;;7.60;3.40;;;13.30;99.90;;;;;;5043101;28;20059;-43
2023/08/10 04:16:12;;;;;;;7.10;3.50;;;13.30;99.90;;;;;;5043826;28;20040;-39
2023/08/10 04:18:38;;;;;;;6.55;3.97;;;13.30;99.90;;;;;;5036881;28;20814;-41
2023/08/10 04:21:04;;;;;;;7.07;3.72;;;13.30;99.90;;;;;;5024352;28;20661;-41
2023/08/10 04:23:30;;;;;;;4.90;3.05;;;13.30;99.90;;;;;;5037922;28;20048;-42
2023/08/10 04:25:56;;;;;;;6.82;3.50;;;13.40;99.90;;;;;;5047727;28;20099;-42
2023/08/10 04:28:22;;;;;;;7.80;3.83;;;13.40;99.90;;;;;;5049451;28;20048;-43
2023/08/10 04:30:49;;;;;;;6.65;3.30;;;13.40;99.90;;;;;;5042983;28;20506;-43
2023/08/10 04:33:15;;;;;;;5.72;3.97;;;13.40;99.90;;;;;;5040712;28;20056;-43
2023/08/10 04:35:40;;;;;;;6.07;3.40;;;13.40;99.90;;;;;;5042932;28;20072;-39
2023/08/10 04:38:06;;;;;;;7.13;3.28;;;13.50;99.90;;;;;;5055436;28;20057;-42
2023/08/10 04:40:32;;;;;;;9.18;3.75;;;13.50;99.90;;;;;;5055366;28;20483;-40
2023/08/10 04:43:00;;;;;;;7.38;3.33;;;13.60;99.90;;;;;;5040869;28;20045;-42
2023/08/10 04:45:26;;;;;;;4.35;3.55;;;13.60;99.90;;;;;;5035942;28;20052;-39
2023/08/10 04:47:51;;;;;;;7.03;3.25;;;13.60;99.90;;;;;;5055318;28;20666;-44
2023/08/10 04:50:17;;;;;;;7.32;3.78;;;13.60;99.90;;;;;;5046899;28;20049;-42
2023/08/10 04:52:43;;;;;;;6.30;3.05;;;13.70;99.90;;;;;;5048162;28;20051;-41
2023/08/10 04:55:10;;;;;;;5.95;3.15;;;13.80;99.90;;;;;;5043831;28;20076;-42
2023/08/10 04:57:37;;;;;;;6.63;3.35;;;13.80;99.90;;;;;;5055158;28;20044;-40
2023/08/10 05:00:09;;;;;;;7.20;3.65;;;13.90;99.90;;;;;;5036416;28;20165;-39
2023/08/10 05:02:35;;;;;;;6.78;3.85;;;13.90;99.90;;;;;;5036970;28;20951;-40
2023/08/10 05:05:02;;;;;;;5.43;3.10;;;13.90;99.90;;;;;;5035067;28;20049;-39
2023/08/10 05:07:28;;;;;;;5.18;3.90;;;13.90;99.90;;;;;;5051793;28;20056;-38
2023/08/10 05:09:55;;;;;;;5.57;3.28;;;14.00;99.90;;;;;;5044918;28;20420;-42
2023/08/10 05:12:21;;;;;;;8.63;3.78;;;14.00;99.90;;;;;;5046952;28;20565;-38
2023/08/10 05:14:47;;;;;;;10.88;3.80;;;14.00;99.90;;;;;;5036612;28;20041;-37
2023/08/10 05:17:12;;;;;;;6.00;4.10;;;14.10;99.90;;;;;;5047486;28;20091;-42
2023/08/10 05:19:38;;;;;;;9.77;4.10;;;14.20;99.90;;;;;;5025866;28;20064;-38
2023/08/10 05:22:04;;;;;;;7.28;4.20;;;14.20;99.90;;;;;;5054051;28;20052;-39
2023/08/10 05:24:32;;;;;;;7.30;4.15;;;14.30;99.90;;;;;;5054241;28;20869;-42
2023/08/10 05:26:58;;;;;;;10.75;4.60;;;14.30;99.90;;;;;;5038003;28;20059;-38
2023/08/10 05:29:23;;;;;;;5.68;3.47;;;14.40;99.90;;;;;;5034907;28;20110;-40
2023/08/10 05:31:49;;;;;;;8.98;3.85;;;14.40;99.90;;;;;;5046405;28;20840;-41
2023/08/10 05:34:15;;;;;;;11.63;4.78;;;14.50;99.90;;;;;;5016290;28;20500;-44
2023/08/10 05:36:40;;;;;;;9.70;4.53;;;14.60;99.90;;;;;;5034308;28;20422;-37
2023/08/10 05:39:06;;;;;;;7.97;4.63;;;14.60;99.90;;;;;;5044027;28;20411;-42
2023/08/10 05:41:32;;;;;;;9.77;4.97;;;14.70;99.90;;;;;;5053542;28;20048;-44
2023/08/10 05:43:58;;;;;;;8.48;4.68;;;14.70;99.90;;;;;;5044391;28;20056;-41
2023/08/10 05:46:23;;;;;;;10.60;4.40;;;14.80;99.90;;;;;;5049984;28;20478;-40
2023/08/10 05:48:49;;;;;;;10.60;4.88;;;14.90;99.90;;;;;;5054200;28;20624;-44
2023/08/10 05:51:15;;;;;;;6.40;4.20;;;15.00;99.90;;;;;;5053314;28;20053;-38
2023/08/10 05:53:41;;;;;;;6.25;4.75;;;15.00;99.90;;;;;;5054120;28;20054;-42
2023/08/10 05:56:06;;;;;;;11.27;4.90;;;15.10;99.90;;;;;;5053763;28;20086;-43
2023/08/10 05:58:32;;;;;;;6.68;4.70;;;15.20;99.90;;;;;;5036399;28;20061;-41
2023/08/10 06:00:57;;;;;;;7.63;4.35;;;15.30;99.90;;;;;;5053396;28;20063;-39
2023/08/10 06:03:23;;;;;;;11.52;5.18;;;15.40;99.90;;;;;;5035435;28;20049;-38
2023/08/10 06:05:49;;;;;;;8.30;5.28;;;15.60;99.90;;;;;;5039569;28;20052;-42
2023/08/10 06:08:15;;;;;;;10.07;5.60;;;15.70;99.90;;;;;;5053975;28;20411;-40
2023/08/10 06:10:41;;;;;;;4.80;4.30;;;15.80;99.90;;;;;;5040239;28;20048;-42
2023/08/10 06:13:06;;;;;;;7.38;4.15;;;15.90;99.90;;;;;;5051996;28;20336;-42
2023/08/10 06:15:33;;;;;;;6.28;4.55;;;15.90;99.90;;;;;;5041345;28;20679;-41
2023/08/10 06:17:58;;;;;;;7.13;3.92;;;16.00;99.90;;;;;;5054030;28;20063;-41
2023/08/10 06:20:26;;;;;;;7.97;4.45;;;16.00;99.90;;;;;;5038381;28;20048;-41
2023/08/10 06:22:53;;;;;;;9.48;4.00;;;16.10;99.90;;;;;;5036795;28;20128;-43
2023/08/10 06:25:19;;;;;;;7.60;4.50;;;16.20;99.90;;;;;;5035192;28;20079;-41
2023/08/10 06:27:47;;;;;;;5.90;4.25;;;16.30;99.90;;;;;;5038313;28;20696;-41
2023/08/10 06:30:13;;;;;;;8.65;4.05;;;16.30;99.90;;;;;;5043098;28;20055;-42
2023/08/10 06:32:40;;;;;;;5.60;3.55;;;16.50;99.90;;;;;;5039019;28;20047;-40
2023/08/10 06:35:08;;;;;;;6.20;3.20;;;16.90;99.90;;;;;;5042924;28;20594;-41
2023/08/10 06:37:33;;;;;;;6.47;3.45;;;17.50;99.90;;;;;;5045461;28;20057;-40
2023/08/10 06:39:59;;;;;;;9.75;3.38;;;17.90;99.90;;;;;;5044294;28;20051;-44
2023/08/10 06:42:25;;;;;;;7.03;2.90;;;18.10;99.90;;;;;;5029402;28;20780;-43
2023/08/10 06:44:51;;;;;;;6.30;3.03;;;18.00;99.90;;;;;;5043546;28;20151;-42
2023/08/10 06:47:16;;;;;;;4.43;2.42;;;18.00;99.90;;;;;;5041725;28;20041;-41
2023/08/10 06:49:42;;;;;;;8.82;3.38;;;17.90;99.90;;;;;;5042141;28;20460;-41
2023/08/10 06:52:08;;;;;;;7.20;3.53;;;17.80;99.90;;;;;;5036738;28;20419;-38
2023/08/10 06:54:34;;;;;;;10.15;3.20;;;17.60;99.90;;;;;;5035605;28;20151;-40
2023/08/10 06:57:00;;;;;;;5.75;2.97;;;17.50;99.90;;;;;;5039194;28;20430;-40
2023/08/10 06:59:26;;;;;;;5.53;2.50;;;17.30;99.90;;;;;;5026179;28;20477;-42
2023/08/10 07:01:52;;;;;;;8.05;3.60;;;17.20;99.90;;;;;;5040393;28;20059;-39
2023/08/10 07:04:17;;;;;;;6.05;2.83;;;17.20;99.90;;;;;;5043758;28;20119;-41
2023/08/10 07:06:43;;;;;;;7.10;2.85;;;17.10;99.90;;;;;;5040543;28;20071;-42
2023/08/10 07:09:09;;;;;;;5.90;2.50;;;17.10;99.90;;;;;;5054790;28;20391;-40
2023/08/10 07:11:35;;;;;;;7.07;3.08;;;17.10;99.90;;;;;;5021969;28;20053;-38
2023/08/10 07:14:02;;;;;;;7.10;2.80;;;17.10;99.90;;;;;;5035803;28;20044;-43
2023/08/10 07:16:28;;;;;;;7.22;3.20;;;17.10;99.90;;;;;;5046982;28;20114;-38
2023/08/10 07:18:54;;;;;;;6.22;3.30;;;17.10;99.90;;;;;;5053050;28;20049;-41
2023/08/10 07:21:20;;;;;;;7.38;2.70;;;17.10;99.90;;;;;;5056024;28;20131;-41
2023/08/10 07:23:46;;;;;;;7.78;2.70;;;17.20;99.90;;;;;;5055538;28;20053;-46
2023/08/10 07:26:12;;;;;;;5.00;2.38;;;17.20;99.90;;;;;;5047143;28;20491;-39
2023/08/10 07:28:38;;;;;;;4.82;2.20;;;17.30;99.90;;;;;;5038432;28;20048;-41
2023/08/10 07:31:03;;;;;;;7.05;2.15;;;17.40;99.90;;;;;;5056029;28;20056;-42
2023/08/10 07:33:29;;;;;;;7.40;2.05;;;17.40;99.90;;;;;;5055914;28;20087;-42
2023/08/10 07:35:55;;;;;;;6.60;2.13;;;17.50;99.90;;;;;;5056271;28;20076;-37
2023/08/10 07:38:21;;;;;;;4.57;2.22;;;17.60;99.90;;;;;;5038106;28;20554;-39
2023/08/10 07:40:47;;;;;;;7.05;2.22;;;17.60;99.90;;;;;;5056054;28;20052;-44
2023/08/10 07:43:13;;;;;;;7.75;2.38;;;17.70;99.90;;;;;;5056047;28;20142;-42
2023/08/10 07:45:38;;;;;;;7.65;1.92;;;17.70;99.90;;;;;;5055606;28;20229;-39
2023/08/10 07:48:04;;;;;;;3.60;1.52;;;17.70;99.90;;;;;;5050958;28;20451;-42
2023/08/10 07:50:31;;;;;;;7.70;2.22;;;17.70;99.90;;;;;;5046183;28;20097;-39
2023/08/10 07:52:57;;;;;;;6.07;1.95;;;17.70;99.90;;;;;;5053528;28;20474;-42
2023/08/10 07:55:23;;;;;;;7.55;2.13;;;17.70;99.90;;;;;;5055358;28;20044;-41
2023/08/10 07:57:50;;;;;;;5.28;1.83;;;17.70;99.90;;;;;;5041676;28;20130;-45
2023/08/10 08:00:16;;;;;;;5.57;1.77;;;17.70;99.90;;;;;;5038344;28;20123;-44
2023/08/10 08:02:42;;;;;;;4.57;2.00;;;17.80;99.90;;;;;;5023832;28;20041;-41
2023/08/10 08:05:08;;;;;;;6.47;2.00;;;17.90;99.90;;;;;;5020938;28;20478;-40
2023/08/10 08:07:33;;;;;;;5.65;1.98;;;18.10;99.90;;;;;;5054164;28;20479;-40
2023/08/10 08:10:00;;;;;;;8.57;2.00;;;18.40;99.90;;;;;;5045632;28;20045;-42
2023/08/10 08:12:26;;;;;;;6.93;2.10;;;18.70;99.90;;;;;;5040521;28;20392;-39
2023/08/10 08:14:53;;;;;;;4.97;1.85;;;18.90;99.90;;;;;;5036798;28;20055;-45
2023/08/10 08:17:20;;;;;;;7.47;2.47;;;18.90;99.90;;;;;;5042201;28;20165;-43
2023/08/10 08:19:46;;;;;;;4.50;1.92;;;19.00;99.90;;;;;;5039119;28;20056;-39
2023/08/10 08:22:11;;;;;;;7.28;2.22;;;18.90;99.90;;;;;;5042981;28;20423;-41
2023/08/10 08:24:38;;;;;;;7.00;1.55;;;18.90;99.90;;;;;;5028750;28;20057;-43
2023/08/10 08:27:04;;;;;;;6.32;2.13;;;18.80;99.90;;;;;;5045679;28;20052;-41
2023/08/10 08:29:31;;;;;;;9.50;2.42;;;18.70;99.90;;;;;;5055453;28;20059;-40
2023/08/10 08:31:57;;;;;;;5.43;2.15;;;18.60;99.90;;;;;;5054450;28;20179;-40
2023/08/10 08:34:23;;;;;;;5.47;2.00;;;18.50;99.90;;;;;;5025377;28;20056;-40
2023/08/10 08:36:49;;;;;;;7.82;2.08;;;18.50;99.90;;;;;;5047783;28;20254;-43
2023/08/10 08:39:15;;;;;;;13.63;4.30;;;18.50;99.90;;;;;;5046606;28;20557;-40
2023/08/10 08:41:41;;;;;;;5.18;1.90;;;18.40;99.90;;;;;;5053869;28;20044;-37
2023/08/10 08:44:08;;;;;;;5.55;2.08;;;18.40;99.90;;;;;;5041912;28;20937;-39
2023/08/10 08:46:39;;;;;;;4.85;1.70;;;18.40;99.90;;;;;;5040747;28;20102;-40
2023/08/10 08:49:05;;;;;;;5.05;1.90;;;18.40;99.90;;;;;;5047520;28;20483;-43
2023/08/10 08:51:31;;;;;;;6.85;1.73;;;18.50;99.90;;;;;;5048629;28;20446;-41
2023/08/10 08:54:02;;;;;;;4.22;1.80;;;18.50;99.90;;;;;;5035490;28;20555;-43
2023/08/10 08:56:28;;;;;;;7.82;1.95;;;18.60;99.90;;;;;;5054701;28;20485;-43
2023/08/10 08:58:54;;;;;;;7.30;1.83;;;18.70;99.90;;;;;;5036169;28;20075;-39
2023/08/10 09:01:20;;;;;;;7.00;2.10;;;18.80;99.90;;;;;;5035528;28;20056;-43
2023/08/10 09:03:46;;;;;;;4.90;1.73;;;18.80;99.90;;;;;;5044529;28;20140;-39
2023/08/10 09:06:12;;;;;;;6.95;1.90;;;18.80;99.90;;;;;;5043526;28;20558;-39
2023/08/10 09:08:38;;;;;;;5.22;1.60;;;18.80;99.90;;;;;;5054935;28;20045;-41
2023/08/10 09:11:05;;;;;;;3.75;1.77;;;18.80;99.90;;;;;;5054384;28;20060;-40
2023/08/10 09:13:31;;;;;;;4.63;2.05;;;18.80;99.90;;;;;;5035109;28;20051;-42
2023/08/10 09:16:07;;;;;;;5.80;1.83;;;18.80;99.90;;;;;;5041904;28;20534;-42
2023/08/10 09:18:33;;;;;;;5.10;1.90;;;18.90;99.90;;;;;;5036681;28;20109;-43
2023/08/10 09:21:29;;;;;;;5.85;2.00;;;18.80;99.90;;;;;;5053439;28;20094;-44
2023/08/10 09:23:55;;;;;;;3.92;1.70;;;18.80;99.90;;;;;;5049674;28;20071;-43
2023/08/10 09:26:22;;;;;;;4.28;1.83;;;18.80;99.90;;;;;;5042794;28;20071;-40
2023/08/10 09:28:50;;;;;;;6.18;1.73;;;18.80;99.90;;;;;;5052411;28;20455;-42
2023/08/10 09:31:26;;;;;;;5.63;1.77;;;18.70;99.90;;;;;;5053792;28;20052;-42
2023/08/10 09:33:59;;;;;;;4.85;1.83;;;18.70;99.90;;;;;;5040143;28;20178;-40
2023/08/10 09:36:29;;;;;;;4.28;1.95;;;18.70;99.90;;;;;;5040219;28;20080;-46
2023/08/10 09:38:55;;;;;;;5.32;1.70;;;18.70;99.90;;;;;;5032960;28;20056;-40
2023/08/10 09:41:23;;;;;;;5.05;2.28;;;18.70;99.90;;;;;;5034828;28;20569;-42
2023/08/10 09:43:49;;;;;;;3.20;1.60;;;18.80;99.90;;;;;;5035318;28;20045;-40
2023/08/10 09:46:15;;;;;;;3.30;1.52;;;18.70;99.90;;;;;;5054124;28;20148;-43
2023/08/10 09:48:47;;;;;;;3.92;2.10;;;18.80;99.90;;;;;;5036080;28;20048;-39
2023/08/10 09:51:13;;;;;;;5.43;1.90;;;18.80;99.90;;;;;;5051454;28;20068;-44
2023/08/10 09:53:40;;;;;;;8.18;2.08;;;18.90;99.90;;;;;;5042931;28;20041;-41
2023/08/10 09:56:09;;;;;;;6.18;2.10;;;19.10;99.90;;;;;;5053597;28;20507;-41
2023/08/10 09:58:37;;;;;;;5.25;1.98;;;19.10;99.90;;;;;;5043446;28;20090;-42
2023/08/10 10:01:04;;;;;;;8.35;1.83;;;19.10;99.90;;;;;;5047057;28;20055;-43
2023/08/10 10:03:31;;;;;;;8.25;2.10;;;19.00;99.90;;;;;;5044810;28;20083;-43
2023/08/10 10:05:58;;;;;;;4.35;1.83;;;19.00;99.90;;;;;;5039690;28;20502;-45
2023/08/10 10:08:26;;;;;;;6.32;2.50;;;19.00;99.90;;;;;;5031068;28;20048;-42
2023/08/10 10:10:53;;;;;;;6.78;2.05;;;19.00;99.90;;;;;;5052173;28;20056;-46
2023/08/10 10:13:20;;;;;;;7.28;2.58;;;19.00;99.90;;;;;;5049227;28;20852;-42
2023/08/10 10:15:46;;;;;;;5.20;2.15;;;19.00;99.90;;;;;;5045237;28;20049;-40
2023/08/10 10:18:13;;;;;;;5.28;2.70;;;19.10;99.90;;;;;;5047122;28;20087;-41
2023/08/10 10:20:42;;;;;;;7.97;2.53;;;19.20;99.90;;;;;;5054373;28;21013;-41
2023/08/10 10:23:19;;;;;;;5.13;2.45;;;19.30;99.90;;;;;;5042800;28;20040;-42
2023/08/10 10:26:02;;;;;;;5.03;2.60;;;19.40;99.90;;;;;;5039868;28;20056;-41
2023/08/10 10:28:30;;;;;;;4.47;2.45;;;19.60;99.90;;;;;;5044892;28;20380;-42
2023/08/10 10:31:08;;;;;;;4.63;2.50;;;19.70;99.90;;;;;;5057478;28;20041;-40
2023/08/10 10:33:35;;;;;;;4.35;2.30;;;19.80;99.90;;;;;;5043295;28;20561;-45
2023/08/10 10:36:07;;;;;;;4.85;2.40;;;19.90;99.90;;;;;;5036020;28;20036;-39
2023/08/10 10:38:33;;;;;;;7.25;2.97;;;20.00;99.90;;;;;;5055902;28;20473;-42
2023/08/10 10:41:15;;;;;;;4.15;2.50;;;20.20;99.90;;;;;;5022528;28;20059;-46
2023/08/10 10:43:44;;;;;;;4.15;2.80;;;20.20;99.90;;;;;;5036827;28;20041;-42
2023/08/10 10:46:32;;;;;;;5.00;3.00;;;20.30;99.90;;;;;;5050186;28;20519;-39
2023/08/10 10:48:58;;;;;;;4.15;2.60;;;20.30;99.90;;;;;;5048393;28;20127;-45
2023/08/10 10:51:25;;;;;;;6.25;2.80;;;20.30;99.90;;;;;;5038496;28;20053;-43
2023/08/10 10:53:54;;;;;;;7.15;2.95;;;20.30;99.90;;;;;;5044522;28;20064;-41
2023/08/10 10:56:20;;;;;;;4.65;3.20;;;20.40;99.90;;;;;;5049917;28;20037;-42
2023/08/10 10:58:50;;;;;;;5.38;2.95;;;20.60;99.90;;;;;;5049256;28;20433;-46
2023/08/10 11:01:21;;;;;;;8.02;3.53;;;20.70;99.90;;;;;;5056568;28;20498;-43
2023/08/10 11:03:55;;;;;;;5.95;2.85;;;21.00;99.90;;;;;;5038848;28;20045;-40
2023/08/10 11:06:23;;;;;;;3.72;3.00;;;21.20;99.90;;;;;;5044779;28;20071;-43
2023/08/10 11:08:51;;;;;;;4.82;3.53;;;21.40;99.90;;;;;;5024482;28;20057;-46
2023/08/10 11:11:17;;;;;;;6.30;3.47;;;21.50;99.90;;;;;;5056858;28;20539;-41
2023/08/10 11:13:43;;;;;;;8.02;4.10;;;21.40;99.90;;;;;;5043295;28;20456;-44
2023/08/10 11:16:09;;;;;;;9.50;4.22;;;21.50;99.90;;;;;;5048849;28;20035;-43
2023/08/10 11:18:37;;;;;;;6.35;3.30;;;21.50;99.90;;;;;;5050493;28;20458;-44
2023/08/10 11:21:06;;;;;;;10.35;4.05;;;21.50;99.90;;;;;;5014363;28;20060;-40
2023/08/10 11:23:32;;;;;;;8.30;4.30;;;21.70;99.90;;;;;;5053649;28;20049;-39
2023/08/10 11:25:58;;;;;;;8.35;4.07;;;21.80;99.90;;;;;;5056440;28;20041;-42
2023/08/10 11:28:26;;;;;;;7.82;3.60;;;21.70;99.90;;;;;;5054678;28;20121;-43
2023/08/10 11:30:52;;;;;;;5.80;3.15;;;21.70;99.90;;;;;;5044358;28;20168;-42
2023/08/10 11:33:18;;;;;;;7.55;4.25;;;21.70;99.90;;;;;;5048227;28;20049;-42
2023/08/10 11:35:51;;;;;;;5.72;3.92;;;21.60;99.90;;;;;;5050929;28;20070;-45
2023/08/10 11:38:17;;;;;;;8.45;3.78;;;21.60;99.90;;;;;;5038319;28;20407;-43
2023/08/10 11:40:43;;;;;;;5.43;3.72;;;21.60;99.90;;;;;;5036383;28;20052;-46
2023/08/10 11:43:14;;;;;;;4.80;3.40;;;21.60;99.90;;;;;;5040845;28;20689;-39
2023/08/10 11:45:40;;;;;;;6.85;3.55;;;21.60;99.90;;;;;;5056796;28;20400;-43
2023/08/10 11:48:11;;;;;;;6.93;3.50;;;21.50;99.90;;;;;;5055957;28;20552;-42
2023/08/10 11:50:38;;;;;;;5.25;4.10;;;21.60;99.90;;;;;;5054990;28;20131;-42
2023/08/10 11:53:21;;;;;;;5.82;4.22;;;21.60;99.90;;;;;;5054058;28;20055;-43
2023/08/10 11:55:49;;;;;;;8.60;3.28;;;21.50;99.90;;;;;;5034304;28;20088;-41
2023/08/10 11:58:16;;;;;;;7.15;3.80;;;21.70;99.90;;;;;;5043258;28;20485;-41
2023/08/10 12:00:46;;;;;;;5.65;4.07;;;21.70;99.90;;;;;;5055397;28;20044;-41
2023/08/10 12:03:24;;;;;;;5.57;3.35;;;21.70;99.90;;;;;;5055473;28;20044;-42
2023/08/10 12:05:55;;;;;;;6.68;3.42;;;21.70;99.90;;;;;;5051990;28;20072;-41
2023/08/10 12:08:32;;;;;;;5.70;3.83;;;21.80;99.90;;;;;;5036388;28;20049;-40
2023/08/10 12:11:02;;;;;;;5.97;4.03;;;21.90;99.90;;;;;;5048643;28;20526;-40
2023/08/10 12:13:28;;;;;;;8.82;3.97;;;22.00;99.90;;;;;;5030101;28;20056;-42
2023/08/10 12:15:55;;;;;;;5.88;3.55;;;21.90;99.90;;;;;;5049645;28;20055;-42
2023/08/10 12:18:23;;;;;;;5.45;4.57;;;21.90;99.90;;;;;;5047460;28;20182;-44
2023/08/10 12:20:51;;;;;;;6.95;3.80;;;22.00;99.90;;;;;;5049199;28;20045;-44
2023/08/10 12:23:17;;;;;;;5.22;3.60;;;22.10;99.90;;;;;;5051201;28;20797;-40
2023/08/10 12:25:44;;;;;;;7.55;4.00;;;22.10;99.90;;;;;;5030896;28;20518;-43
2023/08/10 12:28:10;;;;;;;8.20;4.15;;;22.30;99.90;;;;;;5047189;28;20048;-39
2023/08/10 12:30:37;;;;;;;8.73;3.72;;;22.10;99.90;;;;;;5054574;28;20117;-46
2023/08/10 12:33:03;;;;;;;5.15;3.13;;;22.10;99.90;;;;;;5042206;28;20774;-40
2023/08/10 12:35:28;;;;;;;7.53;3.55;;;22.10;99.90;;;;;;5049332;28;20048;-38
2023/08/10 12:37:54;;;;;;;8.23;4.35;;;22.10;99.90;;;;;;5046970;28;20126;-42
2023/08/10 12:40:21;;;;;;;6.32;3.90;;;22.00;99.90;;;;;;5029789;28;20821;-43
2023/08/10 12:42:47;;;;;;;7.25;3.47;;;22.10;99.90;;;;;;5035363;28;20049;-42
2023/08/10 12:45:14;;;;;;;6.38;4.22;;;22.10;99.90;;;;;;5040615;28;20411;-44